Time;durP1;ratioP1;P1;durP2;ratioP2;P2;SDS_P1;SDS_P2;PMS_P1;PMS_P2;Temp;Humidity;BMP_temperature;BMP_pressure;BME280_temperature;BME280_humidity;BME280_pressure;Samples;Min_cycle;Max_cycle;Signal;HPM_P1;HPM_P2
2022/09/22 00:00:24;;;;;;;3.10;1.58;;;;;;;;;;4959753;28;20055;-77
2022/09/22 00:02:51;;;;;;;5.05;1.80;;;;;;;;;;4966228;28;20058;-63
2022/09/22 00:05:17;;;;;;;2.40;1.25;;;;;;;;;;4965226;28;20158;-64
2022/09/22 00:07:44;;;;;;;1.88;1.20;;;;;;;;;;4966842;28;20136;-68
2022/09/22 00:10:10;;;;;;;5.50;1.30;;;;;;;;;;4961347;28;20054;-65
2022/09/22 00:12:38;;;;;;;4.43;1.30;;;;;;;;;;4965975;28;20097;-67
2022/09/22 00:15:04;;;;;;;3.80;1.60;;;;;;;;;;4964381;28;20047;-69
2022/09/22 00:17:32;;;;;;;4.68;1.63;;;;;;;;;;4968077;28;20073;-62
2022/09/22 00:19:59;;;;;;;4.43;1.70;;;;;;;;;;4962335;28;20071;-68
2022/09/22 00:22:27;;;;;;;3.72;1.42;;;;;;;;;;4964078;28;20360;-65
2022/09/22 00:24:53;;;;;;;4.13;1.60;;;;;;;;;;4966729;28;20062;-69
2022/09/22 00:27:20;;;;;;;5.72;1.63;;;;;;;;;;4978978;28;20062;-69
2022/09/22 00:29:46;;;;;;;5.68;1.40;;;;;;;;;;4966770;28;20070;-64
2022/09/22 00:32:13;;;;;;;2.53;1.20;;;;;;;;;;4965106;28;20062;-68
2022/09/22 00:34:42;;;;;;;3.30;1.50;;;;;;;;;;4966748;28;20071;-69
2022/09/22 00:37:08;;;;;;;3.30;1.35;;;;;;;;;;4965120;28;20058;-66
2022/09/22 00:39:35;;;;;;;3.28;1.30;;;;;;;;;;4964534;28;20059;-66
2022/09/22 00:42:01;;;;;;;4.07;1.50;;;;;;;;;;4960286;28;20063;-71
2022/09/22 00:44:37;;;;;;;1.80;1.17;;;;;;;;;;4962209;28;20058;-63
2022/09/22 00:47:08;;;;;;;3.30;1.10;;;;;;;;;;4960729;28;20106;-68
2022/09/22 00:49:39;;;;;;;3.33;1.33;;;;;;;;;;4964992;28;20133;-67
2022/09/22 00:52:07;;;;;;;3.25;1.25;;;;;;;;;;4944700;28;20074;-69
2022/09/22 00:54:34;;;;;;;3.03;1.40;;;;;;;;;;4955323;28;20137;-64
2022/09/22 00:57:04;;;;;;;3.25;1.20;;;;;;;;;;4963463;28;20055;-63
2022/09/22 00:59:31;;;;;;;2.53;1.15;;;;;;;;;;4967806;28;20055;-66
2022/09/22 01:01:57;;;;;;;2.97;1.20;;;;;;;;;;4964313;28;20058;-61
2022/09/22 01:04:24;;;;;;;2.67;1.20;;;;;;;;;;4965506;28;20138;-56
2022/09/22 01:06:52;;;;;;;3.47;1.40;;;;;;;;;;4964479;28;20142;-63
2022/09/22 01:09:20;;;;;;;2.15;1.02;;;;;;;;;;4966654;28;20051;-61
2022/09/22 01:11:47;;;;;;;2.15;1.08;;;;;;;;;;4967832;28;20055;-55
2022/09/22 01:14:20;;;;;;;3.63;1.10;;;;;;;;;;4962417;28;20051;-74
2022/09/22 01:16:51;;;;;;;1.70;0.90;;;;;;;;;;4965742;28;20055;-55
2022/09/22 01:19:31;;;;;;;2.17;1.13;;;;;;;;;;4963679;28;20057;-68
2022/09/22 01:22:05;;;;;;;2.88;1.27;;;;;;;;;;4965733;28;20058;-67
2022/09/22 01:24:55;;;;;;;1.80;0.90;;;;;;;;;;4964074;28;20118;-73
2022/09/22 01:27:34;;;;;;;2.28;1.20;;;;;;;;;;4983117;28;20113;-71
2022/09/22 01:30:19;;;;;;;2.13;1.00;;;;;;;;;;4963957;28;20065;-72
2022/09/22 01:32:53;;;;;;;3.08;0.80;;;;;;;;;;4978302;28;20054;-74
2022/09/22 01:35:22;;;;;;;1.80;0.95;;;;;;;;;;4966839;28;20051;-59
2022/09/22 01:37:55;;;;;;;2.30;1.10;;;;;;;;;;4964727;28;20059;-57
2022/09/22 01:40:26;;;;;;;2.15;0.98;;;;;;;;;;4962622;28;20157;-68
2022/09/22 01:42:54;;;;;;;1.67;0.98;;;;;;;;;;4966468;28;20509;-65
2022/09/22 01:45:24;;;;;;;1.67;1.00;;;;;;;;;;4957042;28;20055;-71
2022/09/22 01:47:53;;;;;;;2.58;0.80;;;;;;;;;;4961835;28;20105;-72
2022/09/22 01:50:23;;;;;;;2.33;1.13;;;;;;;;;;4961792;28;20046;-66
2022/09/22 01:52:51;;;;;;;2.67;1.13;;;;;;;;;;4966503;28;20054;-70
2022/09/22 01:55:21;;;;;;;3.92;1.35;;;;;;;;;;4957786;28;20059;-73
2022/09/22 01:57:51;;;;;;;4.53;1.00;;;;;;;;;;4963922;28;20051;-67
2022/09/22 02:00:18;;;;;;;1.75;0.90;;;;;;;;;;4963232;28;20038;-70
2022/09/22 02:02:50;;;;;;;2.65;1.17;;;;;;;;;;4967325;28;20059;-57
2022/09/22 02:05:18;;;;;;;1.73;0.90;;;;;;;;;;4963617;28;20247;-71
2022/09/22 02:07:47;;;;;;;1.27;0.68;;;;;;;;;;4967880;28;20543;-64
2022/09/22 02:10:16;;;;;;;3.47;1.02;;;;;;;;;;4964001;28;20054;-72
2022/09/22 02:12:43;;;;;;;1.80;1.00;;;;;;;;;;4968451;28;20129;-62
2022/09/22 02:15:58;;;;;;;1.67;0.90;;;;;;;;;;4963308;28;20062;-69
2022/09/22 02:18:01;;;;;;;1.45;0.75;;;;;;;;;;4967068;28;20042;-67
2022/09/22 02:20:28;;;;;;;1.80;0.93;;;;;;;;;;4963643;28;20050;-68
2022/09/22 02:22:55;;;;;;;2.03;0.90;;;;;;;;;;4967471;28;20047;-67
2022/09/22 02:25:23;;;;;;;1.67;0.90;;;;;;;;;;4962922;28;20047;-64
2022/09/22 02:27:52;;;;;;;2.40;1.10;;;;;;;;;;4966586;28;20054;-53
2022/09/22 02:30:18;;;;;;;;;;;;;;;;;;4964004;28;20088;-67
2022/09/22 02:32:47;;;;;;;1.38;0.90;;;;;;;;;;4967066;28;19945;-64
2022/09/22 02:35:15;;;;;;;2.25;0.93;;;;;;;;;;4963275;28;20105;-63
2022/09/22 02:37:48;;;;;;;1.50;0.80;;;;;;;;;;4968030;28;20054;-67
2022/09/22 02:40:20;;;;;;;2.67;1.00;;;;;;;;;;4966247;28;20062;-74
2022/09/22 02:42:48;;;;;;;1.85;1.10;;;;;;;;;;4954537;28;20091;-69
2022/09/22 02:45:17;;;;;;;2.13;0.90;;;;;;;;;;4966847;28;20054;-67
2022/09/22 02:47:46;;;;;;;2.10;0.88;;;;;;;;;;4964026;28;20054;-76
2022/09/22 02:50:12;;;;;;;;;;;;;;;;;;4968081;28;20050;-72
2022/09/22 02:52:42;;;;;;;2.38;0.98;;;;;;;;;;4949679;28;19933;-71
2022/09/22 02:55:10;;;;;;;2.13;0.88;;;;;;;;;;4947535;29;20059;-74
2022/09/22 02:57:36;;;;;;;1.95;0.95;;;;;;;;;;4958248;28;20057;-68
2022/09/22 03:00:04;;;;;;;1.83;0.93;;;;;;;;;;4967530;28;20089;-62
2022/09/22 03:02:31;;;;;;;3.03;1.00;;;;;;;;;;4965479;28;20540;-62
2022/09/22 03:04:57;;;;;;;1.88;0.93;;;;;;;;;;4971065;28;20050;-70
2022/09/22 03:07:24;;;;;;;2.80;1.10;;;;;;;;;;4967194;28;20117;-68
2022/09/22 03:09:52;;;;;;;1.92;1.13;;;;;;;;;;4971181;28;20055;-71
2022/09/22 03:12:18;;;;;;;2.58;0.93;;;;;;;;;;4967170;28;20051;-64
2022/09/22 03:14:45;;;;;;;1.58;1.00;;;;;;;;;;4971176;28;20067;-60
2022/09/22 03:17:11;;;;;;;1.90;0.93;;;;;;;;;;4967289;28;20055;-65
2022/09/22 03:19:38;;;;;;;1.98;0.90;;;;;;;;;;4970310;28;20109;-66
2022/09/22 03:22:05;;;;;;;1.85;1.00;;;;;;;;;;4967335;28;20054;-70
2022/09/22 03:24:31;;;;;;;2.42;0.90;;;;;;;;;;4969759;28;20061;-68
2022/09/22 03:26:59;;;;;;;2.55;1.13;;;;;;;;;;4970922;28;20047;-62
2022/09/22 03:29:26;;;;;;;2.20;1.02;;;;;;;;;;4967360;28;20058;-65
2022/09/22 03:31:52;;;;;;;1.95;1.00;;;;;;;;;;4971056;28;20065;-50
2022/09/22 03:34:19;;;;;;;2.75;1.17;;;;;;;;;;4966628;28;20054;-62
2022/09/22 03:36:45;;;;;;;3.63;1.30;;;;;;;;;;4970752;28;20058;-53
2022/09/22 03:39:12;;;;;;;2.72;0.80;;;;;;;;;;4966982;28;20110;-75
2022/09/22 03:41:39;;;;;;;2.60;1.17;;;;;;;;;;4970149;28;20059;-71
2022/09/22 03:44:08;;;;;;;2.92;1.25;;;;;;;;;;4967038;28;20058;-71
2022/09/22 03:46:34;;;;;;;2.58;1.10;;;;;;;;;;4970808;28;20058;-74
2022/09/22 03:49:02;;;;;;;1.52;0.88;;;;;;;;;;4966502;28;20078;-75
2022/09/22 03:51:29;;;;;;;2.90;1.20;;;;;;;;;;4970445;28;20078;-70
2022/09/22 03:53:56;;;;;;;3.58;1.00;;;;;;;;;;4966166;28;20058;-68
2022/09/22 03:56:22;;;;;;;2.35;1.10;;;;;;;;;;4970150;28;20062;-71
2022/09/22 03:58:49;;;;;;;1.55;0.93;;;;;;;;;;4966945;28;20050;-75
2022/09/22 04:01:17;;;;;;;1.98;1.00;;;;;;;;;;4970163;28;20055;-68
2022/09/22 04:03:45;;;;;;;1.58;0.95;;;;;;;;;;4967023;28;20054;-76
2022/09/22 04:06:12;;;;;;;3.80;1.27;;;;;;;;;;4970128;28;20050;-63
2022/09/22 04:08:39;;;;;;;1.90;1.00;;;;;;;;;;4969863;28;20065;-69
2022/09/22 04:11:07;;;;;;;3.35;1.20;;;;;;;;;;4967395;28;20474;-66
2022/09/22 04:13:34;;;;;;;2.80;1.00;;;;;;;;;;4969234;28;20077;-68
2022/09/22 04:16:01;;;;;;;4.25;1.08;;;;;;;;;;4966339;28;20054;-71
2022/09/22 04:18:29;;;;;;;1.92;1.00;;;;;;;;;;4969896;28;20054;-67
2022/09/22 04:20:57;;;;;;;3.33;1.10;;;;;;;;;;4965319;28;20055;-75
2022/09/22 04:23:23;;;;;;;2.95;1.02;;;;;;;;;;4969854;28;20105;-70
2022/09/22 04:25:50;;;;;;;3.38;1.20;;;;;;;;;;4965778;28;20043;-76
2022/09/22 04:28:17;;;;;;;2.42;1.10;;;;;;;;;;4969764;28;20109;-75
2022/09/22 04:30:43;;;;;;;2.90;1.25;;;;;;;;;;4965982;28;20181;-64
2022/09/22 04:33:10;;;;;;;3.20;1.42;;;;;;;;;;4969359;28;20062;-67
2022/09/22 04:35:38;;;;;;;3.70;1.20;;;;;;;;;;4965815;28;20089;-66
2022/09/22 04:38:05;;;;;;;1.15;0.82;;;;;;;;;;4969772;28;20098;-70
2022/09/22 04:40:32;;;;;;;2.70;1.10;;;;;;;;;;4965916;28;20054;-59
2022/09/22 04:42:59;;;;;;;1.92;1.05;;;;;;;;;;4969281;28;20055;-69
2022/09/22 04:45:25;;;;;;;2.78;0.90;;;;;;;;;;4965460;28;20220;-76
2022/09/22 04:47:52;;;;;;;3.28;1.17;;;;;;;;;;4969729;28;20059;-64
2022/09/22 04:50:20;;;;;;;2.33;1.10;;;;;;;;;;4967239;28;20059;-73
2022/09/22 04:52:52;;;;;;;1.98;1.05;;;;;;;;;;4984200;28;20055;-57
2022/09/22 04:55:19;;;;;;;2.75;1.10;;;;;;;;;;4957650;28;20062;-67
2022/09/22 04:57:49;;;;;;;5.73;1.40;;;;;;;;;;4942406;28;20452;-64
2022/09/22 05:00:21;;;;;;;3.00;1.40;;;;;;;;;;4943812;28;20043;-65
2022/09/22 05:02:50;;;;;;;2.70;1.20;;;;;;;;;;4956665;28;20054;-69
2022/09/22 05:05:20;;;;;;;5.40;1.35;;;;;;;;;;4932949;28;20160;-68
2022/09/22 05:07:53;;;;;;;4.28;1.40;;;;;;;;;;4930957;28;20144;-60
2022/09/22 05:10:24;;;;;;;3.38;1.60;;;;;;;;;;4951948;28;20058;-59
2022/09/22 05:12:52;;;;;;;4.53;1.13;;;;;;;;;;4948684;28;20054;-60
2022/09/22 05:15:24;;;;;;;;;;;;;;;;;;4958957;28;20079;-62
2022/09/22 05:17:55;;;;;;;2.60;1.20;;;;;;;;;;4929019;28;19926;-59
2022/09/22 05:20:24;;;;;;;2.78;1.35;;;;;;;;;;4945386;28;20055;-56
2022/09/22 05:22:55;;;;;;;3.30;1.50;;;;;;;;;;4930414;28;20054;-61
2022/09/22 05:25:27;;;;;;;4.57;1.80;;;;;;;;;;4944156;28;20050;-55
2022/09/22 05:27:57;;;;;;;3.17;1.42;;;;;;;;;;4930491;28;20059;-55
2022/09/22 05:30:25;;;;;;;5.15;1.75;;;;;;;;;;4949022;28;20055;-60
2022/09/22 05:32:56;;;;;;;4.32;1.50;;;;;;;;;;4946964;28;20054;-57
2022/09/22 05:35:31;;;;;;;3.70;1.60;;;;;;;;;;4940142;29;20051;-62
2022/09/22 05:38:00;;;;;;;3.53;1.52;;;;;;;;;;4937376;28;20039;-64
2022/09/22 05:40:29;;;;;;;3.13;1.60;;;;;;;;;;4968103;28;20523;-68
2022/09/22 05:43:15;;;;;;;4.90;2.13;;;;;;;;;;4952171;28;20136;-62
2022/09/22 05:45:42;;;;;;;4.85;2.13;;;;;;;;;;4898416;29;20135;-69
2022/09/22 05:48:12;;;;;;;3.85;1.70;;;;;;;;;;4932112;28;20059;-65
2022/09/22 05:50:43;;;;;;;4.72;1.83;;;;;;;;;;4973577;28;20109;-69
2022/09/22 05:53:11;;;;;;;4.65;1.98;;;;;;;;;;4960921;28;20043;-71
2022/09/22 05:55:38;;;;;;;4.07;1.98;;;;;;;;;;4947742;29;20090;-63
2022/09/22 05:58:05;;;;;;;3.63;1.90;;;;;;;;;;4946465;28;20058;-63
2022/09/22 06:00:32;;;;;;;5.05;1.80;;;;;;;;;;4966994;28;20084;-55
2022/09/22 06:02:58;;;;;;;4.72;1.88;;;;;;;;;;4968364;28;20050;-62
2022/09/22 06:05:25;;;;;;;6.03;1.90;;;;;;;;;;4963937;28;20054;-67
2022/09/22 06:08:01;;;;;;;4.68;2.10;;;;;;;;;;4968365;28;20057;-69
2022/09/22 06:10:30;;;;;;;4.35;1.85;;;;;;;;;;4964623;28;20061;-65
2022/09/22 06:13:00;;;;;;;5.25;2.22;;;;;;;;;;4968233;28;20489;-68
2022/09/22 06:15:27;;;;;;;5.82;2.30;;;;;;;;;;4963223;28;20055;-72
2022/09/22 06:17:54;;;;;;;6.43;2.45;;;;;;;;;;4967994;28;20066;-70
2022/09/22 06:20:20;;;;;;;6.10;2.50;;;;;;;;;;4957211;28;20058;-66
2022/09/22 06:22:47;;;;;;;6.50;2.20;;;;;;;;;;4967608;28;20197;-56
2022/09/22 06:25:14;;;;;;;5.28;2.30;;;;;;;;;;4962726;28;20077;-59
2022/09/22 06:27:42;;;;;;;5.78;2.80;;;;;;;;;;4967586;28;20059;-68
2022/09/22 06:30:10;;;;;;;7.63;2.60;;;;;;;;;;4964086;28;20047;-65
2022/09/22 06:32:38;;;;;;;8.63;2.80;;;;;;;;;;4967958;28;20050;-68
2022/09/22 06:35:05;;;;;;;7.00;2.60;;;;;;;;;;4963352;28;20086;-73
2022/09/22 06:37:32;;;;;;;10.00;3.30;;;;;;;;;;4967363;28;20070;-73
2022/09/22 06:39:58;;;;;;;12.07;3.55;;;;;;;;;;4963239;28;20050;-71
2022/09/22 06:42:25;;;;;;;11.02;3.35;;;;;;;;;;4968389;28;20057;-65
2022/09/22 06:44:54;;;;;;;17.92;4.15;;;;;;;;;;4963465;28;20069;-66
2022/09/22 06:47:20;;;;;;;;;;;;;;;;;;4968389;28;20137;-66
2022/09/22 06:49:46;;;;;;;14.02;3.83;;;;;;;;;;4967228;28;19933;-71
2022/09/22 06:52:13;;;;;;;14.63;3.70;;;;;;;;;;4964119;28;20058;-68
2022/09/22 06:54:40;;;;;;;12.00;3.70;;;;;;;;;;4969700;28;20058;-55
2022/09/22 06:57:07;;;;;;;15.13;4.32;;;;;;;;;;4950084;28;20061;-67
2022/09/22 06:59:36;;;;;;;15.93;4.60;;;;;;;;;;4951270;28;20055;-68
2022/09/22 07:02:06;;;;;;;17.55;5.00;;;;;;;;;;4946929;28;20050;-60
2022/09/22 07:04:32;;;;;;;17.98;5.22;;;;;;;;;;4950834;28;20050;-61
2022/09/22 07:06:59;;;;;;;14.13;5.32;;;;;;;;;;4938573;28;20082;-68
2022/09/22 07:09:26;;;;;;;12.45;4.53;;;;;;;;;;4932183;29;20056;-76
2022/09/22 07:11:53;;;;;;;14.35;3.83;;;;;;;;;;4937552;28;20055;-68
2022/09/22 07:14:21;;;;;;;12.10;4.88;;;;;;;;;;4950935;28;20049;-63
2022/09/22 07:16:50;;;;;;;13.82;4.05;;;;;;;;;;4946985;28;20061;-64
2022/09/22 07:19:18;;;;;;;12.07;3.67;;;;;;;;;;4949456;28;20110;-66
2022/09/22 07:21:47;;;;;;;15.80;5.63;;;;;;;;;;4943374;28;20050;-72
2022/09/22 07:24:14;;;;;;;11.57;4.07;;;;;;;;;;4948371;28;20405;-67
2022/09/22 07:26:42;;;;;;;9.77;4.50;;;;;;;;;;4945221;28;20066;-70
2022/09/22 07:29:12;;;;;;;12.20;4.40;;;;;;;;;;4950842;28;20078;-62
2022/09/22 07:31:40;;;;;;;13.77;4.75;;;;;;;;;;4948798;28;20134;-64
2022/09/22 07:34:06;;;;;;;11.60;3.88;;;;;;;;;;4970227;28;20062;-69
2022/09/22 07:36:35;;;;;;;12.23;3.40;;;;;;;;;;4969503;28;20050;-68
2022/09/22 07:39:03;;;;;;;8.85;3.38;;;;;;;;;;4948860;28;20047;-72
2022/09/22 07:41:33;;;;;;;10.20;3.85;;;;;;;;;;4950911;28;20055;-71
2022/09/22 07:45:11;;;;;;;7.50;3.35;;;;;;;;;;4946380;28;20137;-67
2022/09/22 07:46:48;;;;;;;10.60;3.63;;;;;;;;;;4950436;28;20054;-66
2022/09/22 07:49:16;;;;;;;9.82;3.63;;;;;;;;;;4963993;28;20051;-60
2022/09/22 07:51:44;;;;;;;12.65;3.35;;;;;;;;;;4972246;28;20078;-73
2022/09/22 07:54:11;;;;;;;12.88;4.05;;;;;;;;;;4957401;28;20085;-69
2022/09/22 07:56:39;;;;;;;8.18;3.45;;;;;;;;;;4959391;28;20043;-67
2022/09/22 07:59:09;;;;;;;9.87;3.63;;;;;;;;;;4964867;28;20051;-57
2022/09/22 08:01:36;;;;;;;9.90;3.33;;;;;;;;;;4970386;28;20054;-75
2022/09/22 08:04:03;;;;;;;10.02;3.50;;;;;;;;;;4965624;28;20058;-71
2022/09/22 08:06:31;;;;;;;14.73;4.22;;;;;;;;;;4970048;28;20094;-73
2022/09/22 08:09:03;;;;;;;10.77;3.45;;;;;;;;;;4965380;28;20059;-68
2022/09/22 08:11:30;;;;;;;9.52;4.07;;;;;;;;;;4969107;28;20125;-63
2022/09/22 08:13:59;;;;;;;11.77;4.47;;;;;;;;;;4965358;28;20049;-72
2022/09/22 08:16:27;;;;;;;;;;;;;;;;;;4969858;28;20054;-75
2022/09/22 08:18:55;;;;;;;11.55;4.65;;;;;;;;;;4981568;28;19941;-74
2022/09/22 08:21:22;;;;;;;12.93;4.63;;;;;;;;;;4969830;28;20140;-69
2022/09/22 08:23:50;;;;;;;9.02;4.22;;;;;;;;;;4965676;28;20078;-72
2022/09/22 08:26:18;;;;;;;8.77;3.38;;;;;;;;;;4969060;28;20087;-65
2022/09/22 08:28:45;;;;;;;10.80;3.92;;;;;;;;;;4969590;28;20063;-64
2022/09/22 08:31:13;;;;;;;10.75;4.70;;;;;;;;;;4966012;28;20118;-63
2022/09/22 08:33:41;;;;;;;15.88;3.53;;;;;;;;;;4969370;28;20058;-59
2022/09/22 08:36:08;;;;;;;8.02;3.17;;;;;;;;;;4965247;28;20054;-66
2022/09/22 08:38:34;;;;;;;10.35;3.55;;;;;;;;;;4969923;28;20050;-64
2022/09/22 08:41:16;;;;;;;7.38;3.28;;;;;;;;;;4965289;28;20137;-59
2022/09/22 08:43:54;;;;;;;7.88;3.00;;;;;;;;;;4965892;28;20054;-70
2022/09/22 08:46:23;;;;;;;8.43;3.08;;;;;;;;;;4964887;28;20058;-69
2022/09/22 08:51:54;;;;;;;8.63;4.00;;;;;;;;;;4965524;28;19928;-69
2022/09/22 08:54:23;;;;;;;9.80;3.92;;;;;;;;;;4968941;28;20062;-71
2022/09/22 08:56:56;;;;;;;10.10;3.95;;;;;;;;;;4965215;28;20062;-69
2022/09/22 08:59:29;;;;;;;10.95;4.25;;;;;;;;;;4967386;28;20054;-70
2022/09/22 09:02:04;;;;;;;11.88;4.70;;;;;;;;;;4965236;28;20051;-65
2022/09/22 09:04:41;;;;;;;11.25;4.72;;;;;;;;;;4968938;28;20047;-73
2022/09/22 09:07:11;;;;;;;12.20;4.35;;;;;;;;;;4965229;28;20063;-68
2022/09/22 09:09:44;;;;;;;9.40;3.10;;;;;;;;;;4969009;28;20065;-72
2022/09/22 09:12:17;;;;;;;11.20;4.68;;;;;;;;;;4964505;28;20070;-68
2022/09/22 09:15:02;;;;;;;9.88;3.45;;;;;;;;;;4968257;28;20051;-63
2022/09/22 09:17:30;;;;;;;10.55;3.83;;;;;;;;;;4964629;28;20062;-69
2022/09/22 09:20:01;;;;;;;10.77;4.55;;;;;;;;;;4969326;28;20078;-67
2022/09/22 09:22:31;;;;;;;8.90;3.30;;;;;;;;;;4964782;28;20054;-61
2022/09/22 09:25:02;;;;;;;11.55;5.18;;;;;;;;;;4967968;28;20141;-54
2022/09/22 09:27:31;;;;;;;13.13;4.22;;;;;;;;;;4965076;28;20137;-60
2022/09/22 09:30:03;;;;;;;10.13;5.03;;;;;;;;;;4970851;28;20086;-63
2022/09/22 09:32:34;;;;;;;12.25;4.53;;;;;;;;;;4965092;28;20340;-73
2022/09/22 09:35:00;;;;;;;11.05;4.78;;;;;;;;;;4968120;28;20061;-75
2022/09/22 09:37:28;;;;;;;7.68;3.83;;;;;;;;;;4964143;28;20054;-74
2022/09/22 09:39:55;;;;;;;8.43;3.95;;;;;;;;;;4967955;28;20130;-69
2022/09/22 09:42:24;;;;;;;9.68;4.78;;;;;;;;;;4964516;28;20061;-61
2022/09/22 09:44:52;;;;;;;9.80;4.75;;;;;;;;;;4948524;29;20047;-62
2022/09/22 09:47:29;;;;;;;14.18;5.07;;;;;;;;;;4949063;28;20051;-66
2022/09/22 09:49:55;;;;;;;12.90;5.32;;;;;;;;;;4968299;28;20195;-71
2022/09/22 09:52:24;;;;;;;8.55;4.00;;;;;;;;;;4964125;28;20501;-67
2022/09/22 09:54:51;;;;;;;11.23;4.55;;;;;;;;;;4968416;28;20059;-64
2022/09/22 09:57:19;;;;;;;12.20;4.20;;;;;;;;;;4964661;28;20061;-75
2022/09/22 10:02:32;;;;;;;12.68;4.35;;;;;;;;;;4926646;28;20051;-72
2022/09/22 10:05:00;;;;;;;13.80;3.83;;;;;;;;;;4929411;28;20063;-68
2022/09/22 10:07:29;;;;;;;10.00;4.07;;;;;;;;;;4929289;29;20075;-71
2022/09/22 10:09:56;;;;;;;8.82;3.75;;;;;;;;;;4944016;28;20130;-63
2022/09/22 10:12:24;;;;;;;9.02;3.78;;;;;;;;;;4947891;28;20058;-75
2022/09/22 10:14:52;;;;;;;6.53;2.90;;;;;;;;;;4944458;29;20051;-64
2022/09/22 10:17:20;;;;;;;6.33;2.80;;;;;;;;;;4947933;29;20074;-74
2022/09/22 10:19:49;;;;;;;6.70;3.10;;;;;;;;;;4944326;28;20055;-59
2022/09/22 10:22:17;;;;;;;6.07;2.85;;;;;;;;;;4948438;28;20086;-70
2022/09/22 10:24:52;;;;;;;11.15;2.90;;;;;;;;;;4944054;28;20062;-73
2022/09/22 10:27:20;;;;;;;6.72;2.50;;;;;;;;;;4948172;28;20134;-69
2022/09/22 10:29:46;;;;;;;7.50;3.25;;;;;;;;;;4944625;28;20074;-70
2022/09/22 10:32:14;;;;;;;7.80;3.10;;;;;;;;;;4948660;29;20117;-64
2022/09/22 10:34:43;;;;;;;7.68;3.33;;;;;;;;;;4944733;28;20055;-62
2022/09/22 10:37:12;;;;;;;7.38;2.78;;;;;;;;;;4950086;28;20051;-67
2022/09/22 10:39:46;;;;;;;9.90;2.50;;;;;;;;;;4945364;28;20142;-74
2022/09/22 10:42:22;;;;;;;7.03;2.63;;;;;;;;;;4948796;28;20070;-67
2022/09/22 10:44:48;;;;;;;12.07;3.33;;;;;;;;;;4944727;29;20477;-72
2022/09/22 10:47:21;;;;;;;7.28;2.75;;;;;;;;;;4948285;28;20044;-66
2022/09/22 10:49:56;;;;;;;8.38;3.00;;;;;;;;;;4945026;28;20066;-63
2022/09/22 10:52:29;;;;;;;6.38;2.60;;;;;;;;;;4948058;28;20195;-64
2022/09/22 10:55:07;;;;;;;7.45;2.85;;;;;;;;;;4959879;28;20075;-71
2022/09/22 10:57:46;;;;;;;10.48;4.22;;;;;;;;;;4968328;28;20061;-69
2022/09/22 11:00:14;;;;;;;7.75;3.30;;;;;;;;;;4966298;28;20054;-63
2022/09/22 11:03:06;;;;;;;8.90;3.08;;;;;;;;;;4987747;28;20104;-70
2022/09/22 11:14:04;;;;;;;6.28;3.00;;;;;;;;;;4966760;28;20051;-66
2022/09/22 11:16:40;;;;;;;10.10;2.75;;;;;;;;;;4972739;28;20086;-72
2022/09/22 11:19:28;;;;;;;8.60;2.78;;;;;;;;;;4986973;28;20081;-61
2022/09/22 11:22:05;;;;;;;7.43;3.25;;;;;;;;;;4967002;28;20048;-64
2022/09/22 11:24:39;;;;;;;6.93;2.92;;;;;;;;;;4948490;28;20051;-70
2022/09/22 11:27:09;;;;;;;6.60;2.80;;;;;;;;;;4970119;28;20059;-64
2022/09/22 11:29:52;;;;;;;6.05;2.88;;;;;;;;;;4982833;28;20055;-63
2022/09/22 11:32:28;;;;;;;8.60;2.55;;;;;;;;;;4978146;28;20066;-60
2022/09/22 11:35:21;;;;;;;4.63;2.22;;;;;;;;;;4965523;28;20047;-67
2022/09/22 11:37:54;;;;;;;7.38;3.40;;;;;;;;;;4921487;28;20062;-70
2022/09/22 11:40:38;;;;;;;7.88;3.10;;;;;;;;;;4964281;28;20114;-62
2022/09/22 11:43:14;;;;;;;7.22;3.15;;;;;;;;;;4947857;28;20058;-66
2022/09/22 11:45:46;;;;;;;9.00;2.92;;;;;;;;;;4950955;29;20059;-59
2022/09/22 11:48:21;;;;;;;7.65;3.00;;;;;;;;;;4946560;28;20066;-75
2022/09/22 11:51:03;;;;;;;9.13;3.33;;;;;;;;;;4950750;29;20051;-58
2022/09/22 11:53:47;;;;;;;6.50;2.95;;;;;;;;;;4965234;28;20054;-62
2022/09/22 11:56:22;;;;;;;5.35;2.63;;;;;;;;;;4959823;28;20061;-62
2022/09/22 11:58:51;;;;;;;5.07;2.60;;;;;;;;;;4985691;28;20061;-58
2022/09/22 12:01:19;;;;;;;7.63;3.15;;;;;;;;;;4973512;28;20058;-68
2022/09/22 12:03:48;;;;;;;5.97;2.40;;;;;;;;;;4969719;28;20054;-67
2022/09/22 12:06:17;;;;;;;6.72;2.10;;;;;;;;;;4973418;28;20104;-68
2022/09/22 12:08:47;;;;;;;4.75;2.17;;;;;;;;;;4969316;28;20105;-70
2022/09/22 12:11:16;;;;;;;5.45;2.75;;;;;;;;;;4973750;28;20057;-66
2022/09/22 12:13:43;;;;;;;;;;;;;;;;;;4968394;28;20065;-73
2022/09/22 12:16:17;;;;;;;6.72;2.45;;;;;;;;;;4972124;28;19993;-62
2022/09/22 12:18:47;;;;;;;5.35;2.40;;;;;;;;;;4969516;28;20057;-60
2022/09/22 12:21:22;;;;;;;5.28;2.28;;;;;;;;;;4973266;28;20052;-64
2022/09/22 12:23:51;;;;;;;8.60;3.42;;;;;;;;;;4969287;28;20050;-65
2022/09/22 12:26:26;;;;;;;9.85;2.67;;;;;;;;;;4972690;28;20140;-66
2022/09/22 12:28:53;;;;;;;7.15;3.05;;;;;;;;;;4969195;28;20109;-68
2022/09/22 12:31:21;;;;;;;6.05;2.72;;;;;;;;;;4972897;28;20117;-61
2022/09/22 12:33:51;;;;;;;7.95;3.63;;;;;;;;;;4981394;28;20062;-72
2022/09/22 12:36:18;;;;;;;8.00;2.83;;;;;;;;;;4952157;28;20058;-69
2022/09/22 12:38:45;;;;;;;6.63;2.93;;;;;;;;;;4959532;28;20056;-64
2022/09/22 12:41:16;;;;;;;12.40;3.20;;;;;;;;;;4972865;28;20050;-61
2022/09/22 12:43:44;;;;;;;4.70;2.22;;;;;;;;;;4971404;28;20105;-70
2022/09/22 12:46:17;;;;;;;3.30;1.83;;;;;;;;;;4986113;28;20058;-63
2022/09/22 12:48:45;;;;;;;7.18;2.20;;;;;;;;;;4988568;28;20050;-70
2022/09/22 12:51:16;;;;;;;6.00;2.55;;;;;;;;;;4967743;28;20054;-67
2022/09/22 12:53:43;;;;;;;5.35;2.38;;;;;;;;;;4971136;28;20042;-60
2022/09/22 12:56:24;;;;;;;4.60;1.90;;;;;;;;;;4967321;28;20065;-63
2022/09/22 12:58:51;;;;;;;6.13;2.03;;;;;;;;;;4970779;28;20204;-68
2022/09/22 13:01:32;;;;;;;3.65;1.60;;;;;;;;;;4967059;28;20061;-61
2022/09/22 13:04:16;;;;;;;2.78;1.35;;;;;;;;;;4972536;28;20058;-58
2022/09/22 13:07:07;;;;;;;4.43;1.27;;;;;;;;;;4951326;28;20145;-65
2022/09/22 13:09:34;;;;;;;2.55;1.25;;;;;;;;;;4952648;28;20051;-56
2022/09/22 13:12:24;;;;;;;4.30;1.40;;;;;;;;;;4967555;28;20078;-62
2022/09/22 13:14:57;;;;;;;5.72;1.60;;;;;;;;;;4971881;28;20053;-58
2022/09/22 13:17:33;;;;;;;2.78;1.23;;;;;;;;;;4987349;28;20073;-73
2022/09/22 13:20:07;;;;;;;2.70;1.30;;;;;;;;;;4971917;28;20050;-69
2022/09/22 13:22:33;;;;;;;4.65;1.38;;;;;;;;;;4969770;28;20112;-67
2022/09/22 13:25:13;;;;;;;4.22;1.70;;;;;;;;;;4987169;28;20050;-70
2022/09/22 13:27:39;;;;;;;2.28;1.30;;;;;;;;;;4963836;28;20061;-65
2022/09/22 13:30:07;;;;;;;2.15;1.23;;;;;;;;;;4952160;28;20043;-64
2022/09/22 13:32:34;;;;;;;3.22;1.45;;;;;;;;;;4965245;28;20057;-68
2022/09/22 13:35:03;;;;;;;4.47;1.70;;;;;;;;;;4971240;28;20050;-66
2022/09/22 13:37:30;;;;;;;5.82;1.75;;;;;;;;;;4983840;28;20049;-64
2022/09/22 13:39:57;;;;;;;2.25;1.25;;;;;;;;;;4971706;28;20073;-61
2022/09/22 13:42:30;;;;;;;4.65;1.58;;;;;;;;;;4964374;28;20043;-65
2022/09/22 13:44:58;;;;;;;6.40;2.15;;;;;;;;;;4984457;28;20065;-63
2022/09/22 13:47:26;;;;;;;4.88;1.80;;;;;;;;;;4958321;28;20058;-61
2022/09/22 13:49:54;;;;;;;5.75;1.77;;;;;;;;;;4971537;28;20058;-63
2022/09/22 13:52:26;;;;;;;3.63;1.60;;;;;;;;;;4967290;28;20062;-63
2022/09/22 13:54:54;;;;;;;3.55;1.65;;;;;;;;;;4970980;28;20073;-57
2022/09/22 13:57:22;;;;;;;4.25;1.70;;;;;;;;;;4961592;28;20055;-69
2022/09/22 13:59:50;;;;;;;3.90;1.75;;;;;;;;;;4952320;28;20050;-61
2022/09/22 14:02:21;;;;;;;2.28;1.23;;;;;;;;;;4952904;28;20054;-73
2022/09/22 14:04:49;;;;;;;5.20;1.90;;;;;;;;;;4970369;28;20137;-71
2022/09/22 14:07:16;;;;;;;3.70;1.50;;;;;;;;;;4967341;28;20062;-62
2022/09/22 14:09:44;;;;;;;3.50;1.60;;;;;;;;;;4971353;28;20065;-70
2022/09/22 14:12:11;;;;;;;3.15;1.42;;;;;;;;;;4967752;28;20058;-70
2022/09/22 14:14:38;;;;;;;1.80;1.20;;;;;;;;;;4969693;28;20082;-74
2022/09/22 14:17:06;;;;;;;3.40;1.40;;;;;;;;;;4970849;28;20079;-76
2022/09/22 14:19:34;;;;;;;3.53;1.50;;;;;;;;;;4949852;28;20047;-73
2022/09/22 14:22:02;;;;;;;6.20;1.43;;;;;;;;;;4951768;28;20305;-70
2022/09/22 14:24:29;;;;;;;2.88;1.30;;;;;;;;;;4978830;28;20365;-67
2022/09/22 14:26:58;;;;;;;7.45;1.30;;;;;;;;;;4968573;28;20058;-64
2022/09/22 14:29:26;;;;;;;3.58;1.65;;;;;;;;;;4967463;28;20046;-67
2022/09/22 14:31:55;;;;;;;3.25;1.65;;;;;;;;;;4970600;28;20053;-61
2022/09/22 14:34:25;;;;;;;6.88;1.90;;;;;;;;;;4965884;28;20054;-65
2022/09/22 14:36:53;;;;;;;2.95;1.30;;;;;;;;;;4970039;28;20050;-66
2022/09/22 14:39:21;;;;;;;9.57;1.67;;;;;;;;;;4966883;28;20050;-59
2022/09/22 14:41:51;;;;;;;3.05;1.35;;;;;;;;;;4970165;28;20065;-62
2022/09/22 14:44:26;;;;;;;2.65;1.00;;;;;;;;;;4965704;28;20055;-60
2022/09/22 14:46:55;;;;;;;4.63;1.10;;;;;;;;;;4965571;28;20189;-68
2022/09/22 14:49:39;;;;;;;5.95;1.60;;;;;;;;;;4967039;28;20050;-69
2022/09/22 14:52:07;;;;;;;2.95;1.42;;;;;;;;;;4970641;28;20058;-58
2022/09/22 14:54:34;;;;;;;4.22;1.80;;;;;;;;;;4962579;28;20054;-70
2022/09/22 14:57:02;;;;;;;3.92;1.50;;;;;;;;;;4949669;28;20062;-62
2022/09/22 15:02:34;;;;;;;1.97;1.13;;;;;;;;;;4953146;28;20294;-66
2022/09/22 15:05:03;;;;;;;3.00;1.35;;;;;;;;;;4935789;28;20150;-62
2022/09/22 15:07:31;;;;;;;4.07;1.67;;;;;;;;;;4949074;29;20063;-61
2022/09/22 15:09:58;;;;;;;3.58;1.60;;;;;;;;;;4930741;29;20058;-61
2022/09/22 15:12:34;;;;;;;3.05;1.40;;;;;;;;;;4935125;29;20063;-66
2022/09/22 15:15:03;;;;;;;2.97;1.50;;;;;;;;;;4932648;28;20058;-64